Time;durP1;ratioP1;P1;durP2;ratioP2;P2;SDS_P1;SDS_P2;PMS_P1;PMS_P2;Temp;Humidity;BMP_temperature;BMP_pressure;BME280_temperature;BME280_humidity;BME280_pressure;Samples;Min_cycle;Max_cycle;Signal;HPM_P1;HPM_P2
2023/09/03 00:01:11;;;;;;;10.57;8.07;;;14.90;99.90;;;;;;5092316;28;20059;-64
2023/09/03 00:03:38;;;;;;;11.13;8.70;;;14.90;99.90;;;;;;5092524;28;20062;-64
2023/09/03 00:06:04;;;;;;;11.52;8.48;;;14.90;99.90;;;;;;5092129;28;20048;-63
2023/09/03 00:08:30;;;;;;;9.80;7.75;;;14.80;99.90;;;;;;5091958;28;20052;-63
2023/09/03 00:10:56;;;;;;;11.02;8.45;;;14.80;99.90;;;;;;5092417;28;20460;-64
2023/09/03 00:13:23;;;;;;;10.88;7.85;;;14.80;99.90;;;;;;5092396;28;20055;-62
2023/09/03 00:15:49;;;;;;;11.68;8.73;;;14.70;99.90;;;;;;5092008;28;20047;-64
2023/09/03 00:18:15;;;;;;;11.48;9.05;;;14.70;99.90;;;;;;5091990;28;20423;-63
2023/09/03 00:20:57;;;;;;;12.50;8.52;;;14.80;99.90;;;;;;5073848;28;20060;-64
2023/09/03 00:23:24;;;;;;;11.23;8.60;;;14.70;99.90;;;;;;5092316;28;20067;-64
2023/09/03 00:25:50;;;;;;;11.50;7.78;;;14.70;99.90;;;;;;5091622;28;20360;-64
2023/09/03 00:28:16;;;;;;;8.90;7.35;;;14.60;99.90;;;;;;5091880;28;20121;-63
2023/09/03 00:30:42;;;;;;;10.18;7.72;;;14.60;99.90;;;;;;5092050;28;20368;-63
2023/09/03 00:33:09;;;;;;;10.18;7.88;;;14.60;99.90;;;;;;5092108;28;20391;-63
2023/09/03 00:35:35;;;;;;;11.77;8.05;;;14.50;99.90;;;;;;5091528;28;20422;-64
2023/09/03 00:38:01;;;;;;;11.73;8.23;;;14.50;99.90;;;;;;5091480;28;20052;-63
2023/09/03 00:40:27;;;;;;;12.48;8.00;;;14.40;99.90;;;;;;5091766;28;20044;-63
2023/09/03 00:42:54;;;;;;;11.40;7.63;;;14.50;99.90;;;;;;5091955;28;20480;-63
2023/09/03 00:45:20;;;;;;;11.02;8.10;;;14.50;99.90;;;;;;5092020;28;20109;-63
2023/09/03 00:47:47;;;;;;;11.63;8.60;;;14.50;99.90;;;;;;5091525;28;20044;-63
2023/09/03 00:50:14;;;;;;;9.68;7.80;;;14.50;99.90;;;;;;5092114;28;20360;-63
2023/09/03 00:52:40;;;;;;;11.25;8.68;;;14.40;99.90;;;;;;5092344;28;20040;-63
2023/09/03 00:55:07;;;;;;;9.95;8.20;;;14.50;99.90;;;;;;5092525;28;20052;-63
2023/09/03 00:57:33;;;;;;;11.75;7.97;;;14.50;99.90;;;;;;5094437;28;20048;-63
2023/09/03 00:59:59;;;;;;;13.88;8.85;;;14.40;99.90;;;;;;5095833;28;20107;-62
2023/09/03 01:02:26;;;;;;;11.35;8.32;;;14.40;99.90;;;;;;5078034;28;20052;-63
2023/09/03 01:04:52;;;;;;;12.90;10.10;;;14.50;99.90;;;;;;5095481;28;20051;-62
2023/09/03 01:07:18;;;;;;;12.88;8.52;;;14.40;99.90;;;;;;5095031;28;20054;-63
2023/09/03 01:09:45;;;;;;;11.43;9.00;;;14.40;99.90;;;;;;5094953;28;20059;-63
2023/09/03 01:12:39;;;;;;;10.80;9.18;;;14.40;99.90;;;;;;5095244;28;20105;-62
2023/09/03 01:15:14;;;;;;;12.15;9.80;;;14.40;99.90;;;;;;5092324;28;20388;-63
2023/09/03 01:17:41;;;;;;;10.90;9.45;;;14.40;99.90;;;;;;5094816;28;20052;-63
2023/09/03 01:20:14;;;;;;;13.25;9.63;;;14.30;99.90;;;;;;5095228;28;20066;-63
2023/09/03 01:22:54;;;;;;;11.95;9.80;;;14.40;99.90;;;;;;5095448;28;20059;-63
2023/09/03 01:25:36;;;;;;;12.90;10.07;;;14.40;99.90;;;;;;5095463;28;20052;-63
2023/09/03 01:28:24;;;;;;;13.35;10.05;;;14.30;99.90;;;;;;5095047;28;20055;-63
2023/09/03 01:31:03;;;;;;;13.32;9.02;;;14.30;99.90;;;;;;5095146;28;20040;-63
2023/09/03 01:33:31;;;;;;;12.15;9.02;;;14.30;99.90;;;;;;5095182;28;20044;-62
2023/09/03 01:35:59;;;;;;;13.18;9.00;;;14.20;99.90;;;;;;5094802;28;20044;-63
2023/09/03 01:38:26;;;;;;;11.68;9.05;;;14.30;99.90;;;;;;5095194;28;20060;-62
2023/09/03 01:40:57;;;;;;;12.50;9.88;;;14.30;99.90;;;;;;5095108;28;20078;-63
2023/09/03 01:43:24;;;;;;;11.68;8.98;;;14.30;99.90;;;;;;5094888;28;20140;-64
2023/09/03 01:46:02;;;;;;;12.02;9.20;;;14.30;99.90;;;;;;5094786;28;20058;-63
2023/09/03 01:48:40;;;;;;;12.68;8.93;;;14.40;99.90;;;;;;5094636;28;20052;-63
2023/09/03 01:51:18;;;;;;;13.32;9.68;;;14.40;99.90;;;;;;5094762;28;20047;-63
2023/09/03 01:53:53;;;;;;;11.63;9.63;;;14.30;99.90;;;;;;5094844;28;20058;-64
2023/09/03 01:56:22;;;;;;;10.82;9.35;;;14.30;99.90;;;;;;5094338;28;20044;-63
2023/09/03 01:58:53;;;;;;;12.75;9.95;;;14.30;99.90;;;;;;5094712;28;20048;-63
2023/09/03 02:01:21;;;;;;;14.23;10.02;;;14.30;99.90;;;;;;5094651;28;20052;-63
2023/09/03 02:03:50;;;;;;;13.15;9.75;;;14.30;99.90;;;;;;5094534;28;20048;-63
2023/09/03 02:06:16;;;;;;;13.60;10.55;;;14.30;99.90;;;;;;5093756;28;20055;-63
2023/09/03 02:08:42;;;;;;;12.13;10.32;;;14.40;99.90;;;;;;5093641;28;20066;-62
2023/09/03 02:11:08;;;;;;;11.65;9.73;;;14.40;99.90;;;;;;5094205;28;20044;-62
2023/09/03 02:13:35;;;;;;;12.13;10.05;;;14.30;99.90;;;;;;5094342;28;20040;-63
2023/09/03 02:16:01;;;;;;;12.02;9.88;;;14.40;99.90;;;;;;5093729;28;20059;-63
2023/09/03 02:18:27;;;;;;;13.18;9.95;;;14.30;99.90;;;;;;5093607;28;20368;-62
2023/09/03 02:20:54;;;;;;;11.73;9.88;;;14.30;99.90;;;;;;5093642;28;20083;-63
2023/09/03 02:23:20;;;;;;;14.25;10.25;;;14.40;99.90;;;;;;5093964;28;20048;-63
2023/09/03 02:25:46;;;;;;;12.85;10.60;;;14.30;99.90;;;;;;5093635;28;20052;-63
2023/09/03 02:28:12;;;;;;;13.25;10.77;;;14.30;99.90;;;;;;5093474;28;20098;-63
2023/09/03 02:30:39;;;;;;;13.77;10.05;;;14.30;99.90;;;;;;5075586;28;20059;-62
2023/09/03 02:33:05;;;;;;;13.70;10.02;;;14.20;99.90;;;;;;5075409;28;20048;-63
2023/09/03 02:35:31;;;;;;;12.55;9.32;;;14.20;99.90;;;;;;5093659;28;20457;-62
2023/09/03 02:37:57;;;;;;;12.32;9.52;;;14.10;99.90;;;;;;5093723;28;20064;-62
2023/09/03 02:40:24;;;;;;;12.70;9.55;;;14.10;99.90;;;;;;5093399;28;20062;-63
2023/09/03 02:42:50;;;;;;;13.80;10.02;;;14.10;99.90;;;;;;5093158;28;20117;-63
2023/09/03 02:45:16;;;;;;;13.82;11.00;;;14.10;99.90;;;;;;5093516;28;20067;-63
2023/09/03 02:47:43;;;;;;;10.45;8.57;;;14.10;99.90;;;;;;5092788;28;20055;-64
2023/09/03 02:50:09;;;;;;;12.20;9.60;;;14.00;99.90;;;;;;5093519;28;20044;-63
2023/09/03 02:52:35;;;;;;;13.75;9.98;;;14.00;99.90;;;;;;5093468;28;20051;-63
2023/09/03 02:55:01;;;;;;;13.40;9.75;;;14.00;99.90;;;;;;5093443;28;20048;-62
2023/09/03 02:57:28;;;;;;;11.35;8.93;;;13.90;99.90;;;;;;5093241;28;20138;-62
2023/09/03 02:59:54;;;;;;;11.43;9.10;;;13.90;99.90;;;;;;5093074;28;20335;-62
2023/09/03 03:02:20;;;;;;;11.88;9.38;;;13.90;99.90;;;;;;5093306;28;20048;-62
2023/09/03 03:04:46;;;;;;;11.45;9.30;;;13.80;99.90;;;;;;5092792;28;20442;-63
2023/09/03 03:07:13;;;;;;;12.50;9.15;;;13.80;99.90;;;;;;5092438;28;20052;-63
2023/09/03 03:09:39;;;;;;;11.55;8.60;;;13.80;99.90;;;;;;5093033;28;20097;-63
2023/09/03 03:12:05;;;;;;;11.30;8.05;;;13.80;99.90;;;;;;5093077;28;20040;-63
2023/09/03 03:14:32;;;;;;;11.52;9.38;;;13.70;99.90;;;;;;5093231;28;20048;-62
2023/09/03 03:16:58;;;;;;;11.48;9.32;;;13.70;99.90;;;;;;5093088;28;20064;-63
2023/09/03 03:19:24;;;;;;;11.40;9.45;;;13.70;99.90;;;;;;5091893;28;20505;-63
2023/09/03 03:21:50;;;;;;;12.25;10.18;;;13.70;99.90;;;;;;5075192;28;20161;-63
2023/09/03 03:24:17;;;;;;;12.27;9.77;;;13.70;99.90;;;;;;5092872;28;20055;-62
2023/09/03 03:26:43;;;;;;;10.90;8.43;;;13.70;99.90;;;;;;5092815;28;20109;-63
2023/09/03 03:29:10;;;;;;;11.43;8.68;;;13.60;99.90;;;;;;5092795;28;20048;-64
2023/09/03 03:31:36;;;;;;;11.40;9.18;;;13.60;99.90;;;;;;5092948;28;20055;-63
2023/09/03 03:34:02;;;;;;;11.68;8.40;;;13.60;99.90;;;;;;5092637;28;20409;-63
2023/09/03 03:36:29;;;;;;;10.88;8.52;;;13.60;99.90;;;;;;5092186;28;20043;-63
2023/09/03 03:38:56;;;;;;;12.60;9.27;;;13.50;99.90;;;;;;5092761;28;20161;-62
2023/09/03 03:41:22;;;;;;;11.80;9.10;;;13.50;99.90;;;;;;5092635;28;20054;-63
2023/09/03 03:43:50;;;;;;;10.93;8.98;;;13.40;99.90;;;;;;5074323;28;20367;-63
2023/09/03 03:46:18;;;;;;;10.38;8.43;;;13.50;99.90;;;;;;5092345;28;20113;-64
2023/09/03 03:48:45;;;;;;;11.05;8.95;;;13.40;99.90;;;;;;5092801;28;20048;-63
2023/09/03 03:51:11;;;;;;;12.02;8.88;;;13.30;99.90;;;;;;5074124;28;20362;-63
2023/09/03 03:53:38;;;;;;;14.35;9.88;;;13.30;99.90;;;;;;5092810;28;20047;-64
2023/09/03 03:56:13;;;;;;;10.50;8.80;;;13.30;99.90;;;;;;5092408;28;20044;-64
2023/09/03 03:58:41;;;;;;;12.38;9.32;;;13.20;99.90;;;;;;5092424;28;20040;-63
2023/09/03 04:01:18;;;;;;;10.85;9.05;;;13.20;99.90;;;;;;5092460;28;20063;-63
2023/09/03 04:03:45;;;;;;;;;;;13.20;99.90;;;;;;5092659;28;20174;-63
2023/09/03 04:06:12;;;;;;;10.32;8.40;;;13.30;99.90;;;;;;5074252;28;19920;-63
2023/09/03 04:08:39;;;;;;;11.70;8.20;;;13.30;99.90;;;;;;5091909;28;20094;-63
2023/09/03 04:11:08;;;;;;;10.85;8.05;;;13.30;99.90;;;;;;5092220;28;20048;-64
2023/09/03 04:13:35;;;;;;;11.63;8.85;;;13.40;99.90;;;;;;5092150;28;20495;-63
2023/09/03 04:16:09;;;;;;;10.48;8.60;;;13.30;99.90;;;;;;5092064;28;20081;-62
2023/09/03 04:18:37;;;;;;;9.15;7.65;;;13.30;99.90;;;;;;5092135;28;20044;-63
2023/09/03 04:21:04;;;;;;;10.20;8.50;;;13.40;99.90;;;;;;5091949;28;20483;-63
2023/09/03 04:23:30;;;;;;;10.15;8.45;;;13.30;99.90;;;;;;5092396;28;20052;-63
2023/09/03 04:25:57;;;;;;;10.20;7.90;;;13.40;99.90;;;;;;5091854;28;20052;-64
2023/09/03 04:28:23;;;;;;;11.20;8.05;;;13.40;99.90;;;;;;5092195;28;20054;-63
2023/09/03 04:31:00;;;;;;;11.40;8.38;;;13.30;99.90;;;;;;5094414;28;20062;-63
2023/09/03 04:33:27;;;;;;;10.77;8.90;;;13.30;99.90;;;;;;5096219;28;20051;-62
2023/09/03 04:35:58;;;;;;;9.45;7.82;;;13.30;99.90;;;;;;5095609;28;20044;-64
2023/09/03 04:38:25;;;;;;;9.30;8.30;;;13.30;99.90;;;;;;5095844;28;20373;-63
2023/09/03 04:40:51;;;;;;;10.82;8.40;;;13.30;99.90;;;;;;5096003;28;20044;-63
2023/09/03 04:43:18;;;;;;;10.00;8.25;;;13.30;99.90;;;;;;5095216;28;20421;-63
2023/09/03 04:45:48;;;;;;;9.63;7.65;;;13.30;99.90;;;;;;5095524;28;20385;-64
2023/09/03 04:48:19;;;;;;;10.18;8.30;;;13.30;99.90;;;;;;5095864;28;20142;-63
2023/09/03 04:50:46;;;;;;;10.07;8.32;;;13.20;99.90;;;;;;5095728;28;20044;-63
2023/09/03 04:53:12;;;;;;;10.93;8.90;;;13.30;99.90;;;;;;5095774;28;20044;-63
2023/09/03 04:55:39;;;;;;;9.30;8.38;;;13.20;99.90;;;;;;5095415;28;20052;-63
2023/09/03 04:58:05;;;;;;;9.55;8.20;;;13.30;99.90;;;;;;5095349;28;20048;-64
2023/09/03 05:00:33;;;;;;;10.23;7.90;;;13.20;99.90;;;;;;5096078;28;20052;-62
2023/09/03 05:03:01;;;;;;;9.75;8.00;;;13.30;99.90;;;;;;5095518;28;20185;-63
2023/09/03 05:05:27;;;;;;;8.98;7.68;;;13.30;99.90;;;;;;5095044;28;20161;-64
2023/09/03 05:07:54;;;;;;;9.40;7.85;;;13.40;99.90;;;;;;5060364;28;20512;-63
2023/09/03 05:10:20;;;;;;;9.98;8.18;;;13.40;99.90;;;;;;5095403;28;20052;-63
2023/09/03 05:12:47;;;;;;;9.60;8.23;;;13.40;99.90;;;;;;5095444;28;20092;-63
2023/09/03 05:15:13;;;;;;;8.93;7.90;;;13.40;99.90;;;;;;5094942;28;20186;-63
2023/09/03 05:17:40;;;;;;;9.52;8.25;;;13.40;99.90;;;;;;5095203;28;20127;-63
2023/09/03 05:20:08;;;;;;;10.52;8.25;;;13.40;99.90;;;;;;5094317;28;20353;-63
2023/09/03 05:22:35;;;;;;;11.52;7.90;;;13.50;99.90;;;;;;5095016;28;20075;-63
2023/09/03 05:25:02;;;;;;;10.45;7.78;;;13.60;99.90;;;;;;5095264;28;20048;-62
2023/09/03 05:27:29;;;;;;;9.02;7.55;;;13.60;99.90;;;;;;5094757;28;20044;-62
2023/09/03 05:29:55;;;;;;;7.68;6.82;;;13.70;99.90;;;;;;5094424;28;20449;-63
2023/09/03 05:32:22;;;;;;;8.32;7.20;;;13.70;99.90;;;;;;5095078;28;20048;-63
2023/09/03 05:34:49;;;;;;;8.48;6.97;;;13.70;99.90;;;;;;5095084;28;20044;-63
2023/09/03 05:37:15;;;;;;;8.50;7.60;;;13.80;99.90;;;;;;5094603;28;20055;-63
2023/09/03 05:39:42;;;;;;;8.02;7.10;;;13.80;99.90;;;;;;5094714;28;20452;-63
2023/09/03 05:42:08;;;;;;;10.07;7.90;;;13.90;99.90;;;;;;5094238;28;20052;-64
2023/09/03 05:44:34;;;;;;;9.25;7.50;;;14.00;99.90;;;;;;5094821;28;20056;-64
2023/09/03 05:47:01;;;;;;;8.32;7.40;;;14.20;99.90;;;;;;5094830;28;20368;-63
2023/09/03 05:49:27;;;;;;;8.88;7.53;;;14.40;99.90;;;;;;5095085;28;20043;-63
2023/09/03 05:51:53;;;;;;;8.68;7.28;;;14.50;99.90;;;;;;5094657;28;20040;-63
2023/09/03 05:54:19;;;;;;;10.13;7.97;;;14.70;99.90;;;;;;5094489;28;20051;-63
2023/09/03 05:56:46;;;;;;;12.88;8.77;;;14.80;99.90;;;;;;5093826;28;20476;-64
2023/09/03 05:59:14;;;;;;;10.18;8.45;;;14.80;99.90;;;;;;5094270;28;20067;-63
2023/09/03 06:01:40;;;;;;;11.77;8.77;;;14.80;99.90;;;;;;5094333;28;20047;-63
2023/09/03 06:04:09;;;;;;;12.80;9.13;;;14.90;99.90;;;;;;5094293;28;20452;-63
2023/09/03 06:06:37;;;;;;;10.95;9.00;;;14.90;99.90;;;;;;5093412;28;20063;-64
2023/09/03 06:09:05;;;;;;;10.85;9.05;;;14.90;99.90;;;;;;5094302;28;20059;-63
2023/09/03 06:11:32;;;;;;;11.55;9.07;;;14.80;99.90;;;;;;5094296;28;20048;-62
2023/09/03 06:13:59;;;;;;;10.40;9.02;;;14.90;99.90;;;;;;5093952;28;20503;-63
2023/09/03 06:16:25;;;;;;;12.20;8.77;;;14.90;99.90;;;;;;5093951;28;20150;-64
2023/09/03 06:18:52;;;;;;;12.88;9.07;;;14.90;99.90;;;;;;5075889;28;20097;-63
2023/09/03 06:21:19;;;;;;;11.77;8.80;;;15.00;99.90;;;;;;5076150;28;20451;-62
2023/09/03 06:23:46;;;;;;;9.93;8.88;;;14.90;99.90;;;;;;5094146;28;20079;-62
2023/09/03 06:26:13;;;;;;;10.52;8.25;;;15.10;99.90;;;;;;5093188;28;20479;-63
2023/09/03 06:28:40;;;;;;;10.55;8.77;;;15.20;99.90;;;;;;5093891;28;20123;-63
2023/09/03 06:31:06;;;;;;;13.13;8.80;;;15.50;99.90;;;;;;5094267;28;20051;-63
2023/09/03 06:33:33;;;;;;;10.60;8.68;;;15.60;99.90;;;;;;5094182;28;20051;-63
2023/09/03 06:35:59;;;;;;;9.48;8.48;;;15.80;99.90;;;;;;5093687;28;20044;-63
2023/09/03 06:38:25;;;;;;;9.07;7.28;;;16.00;99.90;;;;;;5093950;28;20044;-63
2023/09/03 06:40:51;;;;;;;11.45;8.23;;;16.30;99.90;;;;;;5093862;28;20113;-63
2023/09/03 06:43:18;;;;;;;8.70;7.80;;;16.50;99.90;;;;;;5093394;28;20460;-63
2023/09/03 06:45:44;;;;;;;9.20;7.70;;;16.70;99.90;;;;;;5093424;28;20051;-63
2023/09/03 06:48:10;;;;;;;9.45;8.13;;;17.00;99.90;;;;;;5093470;28;20044;-63
2023/09/03 06:50:40;;;;;;;9.70;8.32;;;17.20;99.90;;;;;;5093165;28;20427;-63
2023/09/03 06:53:06;;;;;;;9.18;7.80;;;17.40;99.90;;;;;;5093440;28;20356;-63
2023/09/03 06:55:32;;;;;;;9.27;8.23;;;17.50;99.90;;;;;;5092856;28;20283;-63
2023/09/03 06:57:59;;;;;;;8.57;7.63;;;17.70;99.90;;;;;;5093677;28;20420;-63
2023/09/03 07:00:25;;;;;;;8.10;7.30;;;17.70;99.90;;;;;;5093504;28;20051;-63
2023/09/03 07:02:51;;;;;;;8.75;7.85;;;18.10;99.90;;;;;;5093376;28;20054;-63
2023/09/03 07:05:18;;;;;;;8.27;6.90;;;18.20;99.90;;;;;;5093099;28;20350;-64
2023/09/03 07:07:44;;;;;;;8.90;6.85;;;18.20;99.90;;;;;;5093276;28;20048;-63
2023/09/03 07:10:11;;;;;;;9.60;7.50;;;18.00;99.90;;;;;;5092974;28;20048;-63
2023/09/03 07:12:37;;;;;;;8.23;7.30;;;18.00;99.90;;;;;;5093266;28;20048;-63
2023/09/03 07:15:04;;;;;;;8.65;7.60;;;17.90;99.90;;;;;;5093172;28;20101;-63
2023/09/03 07:17:30;;;;;;;8.25;6.97;;;17.90;99.90;;;;;;5093090;28;20051;-63
2023/09/03 07:19:57;;;;;;;7.90;6.68;;;17.90;99.90;;;;;;5092653;28;20407;-64
2023/09/03 07:22:24;;;;;;;7.93;6.70;;;18.00;99.90;;;;;;5075147;28;20048;-63
2023/09/03 07:24:53;;;;;;;9.93;7.35;;;18.00;99.90;;;;;;5093028;28;20047;-62
2023/09/03 07:27:20;;;;;;;7.85;6.65;;;18.20;99.90;;;;;;5092272;28;20495;-62
2023/09/03 07:29:50;;;;;;;9.32;6.85;;;18.40;99.90;;;;;;5092739;28;20048;-63
2023/09/03 07:32:17;;;;;;;7.82;6.00;;;18.40;99.90;;;;;;5092752;28;20365;-63
2023/09/03 07:34:45;;;;;;;8.70;6.63;;;18.40;99.90;;;;;;5092874;28;20048;-63
2023/09/03 07:37:11;;;;;;;6.95;6.25;;;18.40;99.90;;;;;;5092473;28;20105;-64
2023/09/03 07:39:38;;;;;;;6.93;6.22;;;18.40;99.90;;;;;;5093446;28;20275;-63
2023/09/03 07:42:04;;;;;;;8.77;6.03;;;18.50;99.90;;;;;;5074966;28;20384;-64
2023/09/03 07:44:31;;;;;;;7.28;6.40;;;18.70;99.90;;;;;;5092759;28;20468;-63
2023/09/03 07:46:57;;;;;;;7.07;6.10;;;18.80;99.90;;;;;;5092204;28;20044;-63
2023/09/03 07:49:24;;;;;;;7.75;6.70;;;19.00;99.90;;;;;;5092448;28;20060;-63
2023/09/03 07:51:50;;;;;;;8.70;7.10;;;19.00;99.90;;;;;;5092645;28;20040;-62
2023/09/03 07:54:17;;;;;;;7.65;6.78;;;19.00;99.90;;;;;;5092392;28;20044;-62
2023/09/03 07:56:43;;;;;;;10.05;7.50;;;18.90;99.90;;;;;;5092328;28;20109;-63
2023/09/03 07:59:10;;;;;;;11.50;7.20;;;18.90;99.90;;;;;;5092201;28;20113;-62
2023/09/03 08:01:36;;;;;;;7.13;6.43;;;19.00;99.90;;;;;;5092299;28;20101;-62
2023/09/03 08:04:03;;;;;;;8.98;7.13;;;19.30;99.90;;;;;;5092559;28;20040;-63
2023/09/03 08:06:30;;;;;;;8.23;7.00;;;19.50;99.90;;;;;;5095361;28;20059;-63
2023/09/03 08:08:56;;;;;;;9.43;7.30;;;19.60;99.90;;;;;;5096478;28;20044;-63
2023/09/03 08:11:22;;;;;;;10.48;7.00;;;19.70;99.90;;;;;;5096375;28;20048;-63
2023/09/03 08:13:58;;;;;;;7.35;5.95;;;19.70;99.90;;;;;;5096387;28;20368;-62
2023/09/03 08:16:24;;;;;;;7.97;6.63;;;19.80;99.90;;;;;;5096373;28;20048;-63
2023/09/03 08:18:51;;;;;;;7.57;6.07;;;19.80;99.90;;;;;;5096462;28;20040;-63
2023/09/03 08:21:17;;;;;;;8.15;5.70;;;19.90;99.90;;;;;;5096196;28;20132;-64
2023/09/03 08:23:43;;;;;;;7.20;5.70;;;19.90;99.90;;;;;;5078109;28;20064;-63
2023/09/03 08:26:09;;;;;;;7.90;6.18;;;20.10;99.90;;;;;;5096171;28;20055;-63
2023/09/03 08:28:36;;;;;;;6.13;5.53;;;20.20;99.90;;;;;;5096180;28;20058;-64
2023/09/03 08:31:03;;;;;;;7.53;6.18;;;20.20;99.90;;;;;;5096324;28;20080;-64
2023/09/03 08:33:29;;;;;;;6.50;5.32;;;20.10;99.90;;;;;;5096589;28;20048;-63
2023/09/03 08:35:55;;;;;;;8.75;6.70;;;20.00;99.90;;;;;;5095947;28;20066;-64
2023/09/03 08:38:21;;;;;;;8.23;5.82;;;19.80;99.90;;;;;;5096013;28;20039;-63
2023/09/03 08:40:48;;;;;;;8.52;7.13;;;19.90;99.90;;;;;;5096058;28;20096;-64
2023/09/03 08:43:18;;;;;;;7.88;6.55;;;19.70;99.90;;;;;;5095592;28;20048;-63
2023/09/03 08:45:51;;;;;;;13.15;7.50;;;19.70;99.90;;;;;;5095784;28;20110;-63
2023/09/03 08:48:17;;;;;;;8.88;6.03;;;19.60;99.90;;;;;;5096435;28;20117;-63
2023/09/03 08:50:44;;;;;;;6.38;5.78;;;19.60;99.90;;;;;;5095630;28;20052;-63
2023/09/03 08:53:11;;;;;;;8.55;6.53;;;19.50;99.90;;;;;;5095794;28;20044;-64
2023/09/03 08:55:39;;;;;;;7.05;6.32;;;19.60;99.90;;;;;;5095472;28;20372;-64
2023/09/03 08:58:05;;;;;;;8.43;7.53;;;19.80;99.90;;;;;;5095326;28;20105;-63
2023/09/03 09:00:33;;;;;;;7.95;7.15;;;19.80;99.90;;;;;;5095633;28;20414;-63
2023/09/03 09:03:01;;;;;;;7.80;5.65;;;19.90;99.90;;;;;;5095978;28;20052;-64
2023/09/03 09:05:28;;;;;;;7.20;6.45;;;19.70;99.90;;;;;;5095130;28;20052;-63
2023/09/03 09:07:55;;;;;;;9.13;6.32;;;19.70;99.90;;;;;;5095536;28;20056;-64
2023/09/03 09:10:25;;;;;;;8.85;7.13;;;19.70;99.90;;;;;;5057099;28;20056;-63
2023/09/03 09:12:55;;;;;;;9.98;6.95;;;19.60;99.90;;;;;;5075642;28;20059;-64
2023/09/03 09:15:22;;;;;;;8.90;7.35;;;19.70;99.90;;;;;;5074740;28;20357;-64
2023/09/03 09:17:48;;;;;;;8.93;7.55;;;19.80;99.90;;;;;;5074108;28;20465;-63
2023/09/03 09:20:15;;;;;;;9.73;7.20;;;20.00;99.90;;;;;;5094298;28;20059;-63
2023/09/03 09:22:43;;;;;;;8.07;7.25;;;20.10;99.90;;;;;;5095264;28;20117;-64
2023/09/03 09:25:17;;;;;;;8.55;6.88;;;20.40;99.90;;;;;;5095033;28;20066;-64
2023/09/03 09:27:43;;;;;;;7.50;5.85;;;20.60;99.90;;;;;;5095320;28;20064;-64
2023/09/03 09:30:12;;;;;;;7.80;6.68;;;20.50;99.90;;;;;;5094590;28;20359;-63
2023/09/03 09:32:40;;;;;;;7.32;4.80;;;20.40;99.90;;;;;;5095156;28;20070;-64
2023/09/03 09:35:07;;;;;;;7.10;4.00;;;20.30;99.90;;;;;;5094858;28;20433;-64
2023/09/03 09:37:41;;;;;;;8.05;3.83;;;20.40;99.90;;;;;;5095521;28;20048;-64
2023/09/03 09:40:08;;;;;;;4.85;3.80;;;20.40;99.90;;;;;;5095033;28;20059;-64
2023/09/03 09:42:50;;;;;;;4.38;3.47;;;20.60;99.90;;;;;;5094870;28;20052;-64
2023/09/03 09:45:16;;;;;;;6.05;4.18;;;20.80;99.90;;;;;;5094482;28;20373;-63
2023/09/03 09:47:43;;;;;;;5.25;4.75;;;20.90;99.90;;;;;;5094952;28;20067;-64
2023/09/03 09:50:09;;;;;;;5.78;4.57;;;21.00;99.90;;;;;;5094573;28;20055;-64
2023/09/03 09:52:36;;;;;;;4.20;3.38;;;21.10;99.90;;;;;;5095006;28;20139;-64
2023/09/03 09:55:03;;;;;;;6.18;4.22;;;21.20;99.90;;;;;;5094854;28;20063;-64
2023/09/03 09:57:30;;;;;;;6.60;4.75;;;21.40;99.90;;;;;;5095003;28;20088;-63
2023/09/03 10:00:03;;;;;;;6.78;4.85;;;21.30;99.90;;;;;;5094777;28;20423;-64
2023/09/03 10:02:29;;;;;;;5.80;5.20;;;21.30;99.90;;;;;;5095321;28;20085;-63
2023/09/03 10:04:56;;;;;;;6.13;5.03;;;21.40;99.90;;;;;;5094692;28;20071;-63
2023/09/03 10:07:22;;;;;;;6.40;4.68;;;21.50;99.90;;;;;;5094574;28;20055;-64
2023/09/03 10:09:49;;;;;;;4.03;3.15;;;21.50;99.90;;;;;;5094435;28;20108;-63
2023/09/03 10:12:15;;;;;;;3.65;3.10;;;21.40;99.90;;;;;;5094523;28;20044;-63
2023/09/03 10:14:41;;;;;;;5.68;3.97;;;21.30;99.90;;;;;;5094500;28;20055;-64
2023/09/03 10:17:10;;;;;;;5.82;3.80;;;21.20;99.90;;;;;;5076361;28;20063;-62
2023/09/03 10:19:52;;;;;;;6.70;4.38;;;21.00;99.90;;;;;;5094442;28;20048;-64
2023/09/03 10:22:20;;;;;;;6.38;4.15;;;21.00;99.90;;;;;;5094328;28;20052;-63
2023/09/03 10:24:58;;;;;;;4.40;3.60;;;21.00;99.90;;;;;;5093912;28;20056;-63
2023/09/03 10:27:27;;;;;;;5.35;3.53;;;21.20;99.90;;;;;;5094235;28;20055;-63
2023/09/03 10:29:56;;;;;;;4.45;3.47;;;21.20;99.90;;;;;;5075482;28;20062;-62
2023/09/03 10:32:24;;;;;;;5.03;3.05;;;21.50;99.90;;;;;;5093824;28;20044;-64
2023/09/03 10:34:50;;;;;;;5.63;3.30;;;21.70;99.90;;;;;;5075707;28;20056;-63
2023/09/03 10:37:17;;;;;;;5.35;3.22;;;21.90;99.90;;;;;;5093982;28;20077;-63
2023/09/03 10:39:45;;;;;;;5.13;3.08;;;21.90;99.90;;;;;;5093396;28;20055;-63
2023/09/03 10:42:14;;;;;;;7.55;4.03;;;21.90;99.90;;;;;;5075742;28;20052;-63
2023/09/03 10:44:45;;;;;;;8.50;4.30;;;21.70;99.90;;;;;;5093214;28;20067;-63
2023/09/03 10:47:17;;;;;;;5.80;4.00;;;21.60;99.90;;;;;;5093846;28;20058;-63
2023/09/03 10:49:45;;;;;;;5.70;4.00;;;21.80;99.90;;;;;;5093928;28;20059;-63
2023/09/03 10:52:39;;;;;;;4.68;3.00;;;21.90;99.90;;;;;;5093544;28;20078;-63
2023/09/03 10:55:21;;;;;;;4.25;3.28;;;22.00;99.90;;;;;;5090530;28;20044;-62
2023/09/03 10:58:11;;;;;;;5.90;3.38;;;22.10;99.90;;;;;;5093735;28;20040;-63
2023/09/03 11:00:38;;;;;;;3.60;2.70;;;22.10;99.90;;;;;;5073087;28;20373;-63
2023/09/03 11:03:18;;;;;;;3.72;2.72;;;22.10;99.90;;;;;;5073116;28;20049;-63
2023/09/03 11:06:13;;;;;;;4.95;2.80;;;22.20;99.90;;;;;;5072809;28;20063;-63
2023/09/03 11:08:40;;;;;;;4.90;2.58;;;22.00;99.90;;;;;;5078565;28;20463;-63
2023/09/03 11:11:09;;;;;;;4.32;2.97;;;21.90;99.90;;;;;;5093250;28;20062;-64
2023/09/03 11:13:36;;;;;;;4.35;2.70;;;21.70;99.90;;;;;;5093454;28;20051;-63
2023/09/03 11:16:03;;;;;;;5.05;2.95;;;21.50;99.90;;;;;;5092904;28;20456;-64
2023/09/03 11:18:30;;;;;;;5.57;3.28;;;21.50;99.90;;;;;;5092951;28;20040;-64
2023/09/03 11:20:58;;;;;;;4.35;2.70;;;21.70;99.90;;;;;;5093197;28;20056;-63
2023/09/03 11:23:27;;;;;;;3.22;2.75;;;21.70;99.90;;;;;;5058704;28;20072;-64
2023/09/03 11:25:54;;;;;;;3.28;2.22;;;21.90;99.90;;;;;;5092914;28;20048;-64
2023/09/03 11:28:20;;;;;;;3.47;2.42;;;21.90;99.90;;;;;;5093087;28;20403;-63
2023/09/03 11:30:47;;;;;;;3.88;2.33;;;22.00;99.90;;;;;;5093140;28;20055;-64
2023/09/03 11:33:23;;;;;;;4.40;2.55;;;22.00;99.90;;;;;;5093015;28;20048;-62
2023/09/03 11:35:50;;;;;;;3.60;2.67;;;22.00;99.90;;;;;;5092701;28;20120;-64
2023/09/03 11:38:17;;;;;;;3.83;2.70;;;21.90;99.90;;;;;;5092584;28;20048;-63
2023/09/03 11:40:43;;;;;;;4.95;2.72;;;22.00;99.90;;;;;;5092099;28;20059;-63
2023/09/03 11:43:10;;;;;;;3.78;2.72;;;22.00;99.90;;;;;;5092366;28;20048;-64
2023/09/03 11:45:37;;;;;;;3.53;2.40;;;22.10;99.90;;;;;;5092466;28;20051;-63
2023/09/03 11:48:06;;;;;;;3.50;2.42;;;22.10;99.90;;;;;;5092981;28;20059;-64
2023/09/03 11:50:34;;;;;;;5.30;2.97;;;22.30;99.90;;;;;;5073681;28;20048;-63
2023/09/03 11:53:04;;;;;;;3.55;2.30;;;22.50;99.90;;;;;;5092509;28;20453;-62
2023/09/03 11:55:37;;;;;;;2.55;1.80;;;22.70;99.90;;;;;;5092123;28;20389;-63
2023/09/03 11:58:07;;;;;;;4.63;1.90;;;22.80;99.90;;;;;;5092983;28;20040;-65
2023/09/03 12:00:35;;;;;;;2.65;1.55;;;22.90;99.90;;;;;;5092595;28;20109;-62
2023/09/03 12:03:03;;;;;;;3.35;2.00;;;22.90;99.90;;;;;;5092894;28;20059;-63
2023/09/03 12:05:31;;;;;;;2.72;1.88;;;22.80;99.90;;;;;;5092952;28;20044;-63
2023/09/03 12:08:02;;;;;;;3.78;2.10;;;23.10;99.90;;;;;;5093049;28;20048;-63
2023/09/03 12:10:30;;;;;;;3.63;1.80;;;23.10;99.90;;;;;;5093054;28;20044;-63
2023/09/03 12:12:56;;;;;;;2.42;1.90;;;23.20;99.90;;;;;;5093039;28;20048;-63
2023/09/03 12:15:23;;;;;;;2.40;1.55;;;23.20;99.90;;;;;;5092856;28;20040;-63
2023/09/03 12:17:49;;;;;;;3.47;1.83;;;23.20;99.90;;;;;;5092998;28;20053;-63
2023/09/03 12:20:36;;;;;;;3.38;2.00;;;23.30;99.90;;;;;;5092468;28;20048;-63
2023/09/03 12:23:08;;;;;;;2.85;1.90;;;23.40;99.90;;;;;;5093042;28;20059;-63
2023/09/03 12:25:35;;;;;;;2.95;1.70;;;23.50;99.90;;;;;;5092716;28;20071;-64
2023/09/03 12:28:02;;;;;;;3.70;1.70;;;23.50;99.90;;;;;;5093022;28;20056;-63
2023/09/03 12:30:58;;;;;;;3.42;1.95;;;23.50;99.90;;;;;;5092042;28;20044;-63
2023/09/03 12:33:26;;;;;;;4.13;1.60;;;23.60;99.90;;;;;;5092191;28;20090;-63
2023/09/03 12:36:16;;;;;;;2.85;1.77;;;23.60;99.90;;;;;;5091965;28;20109;-64
2023/09/03 12:38:59;;;;;;;3.35;1.90;;;23.50;99.90;;;;;;5092082;28;20101;-63
2023/09/03 12:41:27;;;;;;;3.00;1.60;;;23.40;99.90;;;;;;5092310;28;20074;-63
2023/09/03 12:43:55;;;;;;;3.30;1.50;;;23.50;99.90;;;;;;5091560;28;20060;-64
2023/09/03 12:46:22;;;;;;;2.28;1.45;;;23.60;99.90;;;;;;5091951;28;20066;-62
2023/09/03 12:48:48;;;;;;;3.38;1.65;;;23.60;99.90;;;;;;5092219;28;20055;-63